Time;durP1;ratioP1;P1;durP2;ratioP2;P2;SDS_P1;SDS_P2;PMS_P1;PMS_P2;Temp;Humidity;BMP_temperature;BMP_pressure;BME280_temperature;BME280_humidity;BME280_pressure;Samples;Min_cycle;Max_cycle;Signal;HPM_P1;HPM_P2
2021/03/27 00:02:23;;;;;;;69.32;33.83;;;;;;;6.71;77.62;99976.09;5082721;28;20127;-66
2021/03/27 00:05:13;;;;;;;84.15;38.05;;;;;;;6.73;77.40;99969.19;5083901;28;20396;-66
2021/03/27 00:07:44;;;;;;;59.17;27.00;;;;;;;6.80;77.46;99964.06;5086446;28;20088;-67
2021/03/27 00:10:21;;;;;;;65.47;30.17;;;;;;;6.84;76.76;99958.91;5068701;28;20051;-67
2021/03/27 00:12:56;;;;;;;69.97;29.88;;;;;;;6.94;76.91;99953.72;5086327;28;20059;-66
2021/03/27 00:15:33;;;;;;;52.75;22.80;;;;;;;6.90;76.63;99946.81;5086334;28;20028;-67
2021/03/27 00:18:12;;;;;;;69.22;29.83;;;;;;;6.80;77.20;99942.53;5086466;28;20028;-67
2021/03/27 00:20:49;;;;;;;40.92;17.42;;;;;;;6.92;76.99;99941.66;5078513;28;20050;-66
2021/03/27 00:23:17;;;;;;;66.78;30.15;;;;;;;6.64;77.87;99942.56;5085623;28;20024;-65
2021/03/27 00:25:46;;;;;;;47.03;20.77;;;;;;;6.88;77.02;99934.78;5068079;28;20028;-65
2021/03/27 00:28:22;;;;;;;40.58;18.63;;;;;;;6.80;77.28;99927.94;5086368;28;20459;-65
2021/03/27 00:30:47;;;;;;;73.05;31.63;;;;;;;6.78;77.18;99933.94;5086131;28;20044;-66
2021/03/27 00:33:14;;;;;;;54.70;26.95;;;;;;;6.74;77.58;99921.91;5085964;28;20024;-66
2021/03/27 00:35:50;;;;;;;43.42;19.38;;;;;;;6.82;77.19;99922.78;5086213;28;20021;-65
2021/03/27 00:38:21;;;;;;;63.00;26.83;;;;;;;6.77;77.32;99917.59;5085616;28;20025;-67
2021/03/27 00:40:49;;;;;;;58.53;29.30;;;;;;;6.76;77.31;99913.28;5085992;28;20028;-66
2021/03/27 00:43:27;;;;;;;55.22;24.98;;;;;;;6.61;77.89;99901.28;5085714;28;20076;-67
2021/03/27 00:45:56;;;;;;;61.00;24.90;;;;;;;6.87;77.33;99909.88;5085867;28;20024;-66
2021/03/27 00:48:28;;;;;;;59.55;26.20;;;;;;;6.72;77.79;99901.28;5085940;28;20028;-66
2021/03/27 00:50:57;;;;;;;54.97;23.25;;;;;;;6.76;77.62;99895.22;5085965;28;20056;-66
2021/03/27 00:53:32;;;;;;;42.42;19.15;;;;;;;6.80;77.70;99891.81;5085191;28;20190;-66
2021/03/27 00:56:22;;;;;;;44.55;21.63;;;;;;;6.78;77.82;99882.34;5085494;28;20111;-66
2021/03/27 00:58:55;;;;;;;48.17;22.83;;;;;;;6.93;77.44;99879.72;5085442;28;20035;-66
2021/03/27 01:01:23;;;;;;;60.00;29.02;;;;;;;6.75;78.05;99867.72;5085610;28;20032;-66
2021/03/27 01:03:56;;;;;;;56.05;25.48;;;;;;;6.84;77.85;99860.84;5085567;28;20031;-66
2021/03/27 01:06:30;;;;;;;50.38;25.75;;;;;;;6.87;77.76;99861.66;5085361;28;20054;-67
2021/03/27 01:08:59;;;;;;;52.55;25.40;;;;;;;6.92;77.67;99856.50;5085139;28;20032;-66
2021/03/27 01:11:30;;;;;;;57.75;26.95;;;;;;;6.82;78.05;99843.63;5085490;28;20020;-66
2021/03/27 01:13:58;;;;;;;42.17;19.03;;;;;;;7.05;77.62;99847.00;5085124;28;20024;-66
2021/03/27 01:16:30;;;;;;;50.65;25.67;;;;;;;6.96;77.56;99836.72;5084166;28;20268;-66
2021/03/27 01:19:07;;;;;;;42.45;17.52;;;;;;;7.18;76.88;99825.47;5085134;28;20020;-65
2021/03/27 01:21:36;;;;;;;60.80;28.30;;;;;;;6.97;77.46;99833.25;5085294;28;20087;-66
2021/03/27 01:24:06;;;;;;;65.13;30.67;;;;;;;7.03;77.39;99831.53;5084483;28;20045;-65
2021/03/27 01:26:51;;;;;;;51.75;23.63;;;;;;;7.13;76.96;99822.03;5084753;28;20024;-67
2021/03/27 01:29:53;;;;;;;57.85;28.40;;;;;;;7.18;76.62;99811.69;5084847;28;20027;-66
2021/03/27 01:32:28;;;;;;;44.80;18.30;;;;;;;7.30;76.26;99803.88;5002709;28;20064;-65
2021/03/27 01:35:08;;;;;;;59.65;26.27;;;;;;;7.24;76.46;99808.22;5002540;28;20343;-66
2021/03/27 01:37:45;;;;;;;45.97;20.70;;;;;;;7.25;76.41;99807.38;4986221;28;20030;-67
2021/03/27 01:40:49;;;;;;;40.90;19.30;;;;;;;7.29;76.34;99806.47;5002726;28;20043;-65
2021/03/27 01:43:28;;;;;;;54.47;27.05;;;;;;;7.06;76.40;99776.47;5002549;28;20081;-67
2021/03/27 01:46:22;;;;;;;48.53;22.83;;;;;;;7.26;76.21;99781.53;5002365;28;20456;-66
2021/03/27 01:48:56;;;;;;;54.08;25.48;;;;;;;7.10;76.24;99780.75;4974334;28;20053;-66
2021/03/27 01:51:47;;;;;;;59.20;25.85;;;;;;;7.10;76.37;99761.81;5002496;28;20038;-67
2021/03/27 01:54:19;;;;;;;48.03;22.23;;;;;;;7.05;76.86;99782.47;5002277;28;20720;-67
2021/03/27 01:57:02;;;;;;;55.10;24.20;;;;;;;7.22;75.84;99778.97;5002299;28;20038;-66
2021/03/27 01:59:35;;;;;;;46.03;17.77;;;;;;;7.36;75.62;99773.75;4986088;28;20282;-66
2021/03/27 02:02:07;;;;;;;30.80;15.95;;;;;;;7.29;75.63;99754.84;5002144;28;20057;-66
2021/03/27 02:04:49;;;;;;;40.63;19.25;;;;;;;7.24;75.54;99757.44;5002134;28;20058;-66
2021/03/27 02:07:32;;;;;;;36.15;17.25;;;;;;;7.31;75.38;99751.41;4985970;28;20112;-67
2021/03/27 02:10:12;;;;;;;63.05;28.27;;;;;;;6.99;76.55;99756.69;5071240;28;20084;-66
2021/03/27 02:13:13;;;;;;;63.75;29.38;;;;;;;6.94;76.95;99752.44;5084071;28;20024;-67
2021/03/27 02:15:47;;;;;;;44.92;18.38;;;;;;;7.36;75.55;99753.09;5069721;28;20029;-66
2021/03/27 02:18:35;;;;;;;50.90;25.02;;;;;;;6.96;76.84;99746.38;5084141;28;20020;-67
2021/03/27 02:21:03;;;;;;;51.47;21.65;;;;;;;7.22;75.83;99750.59;5083954;28;20024;-66
2021/03/27 02:23:51;;;;;;;57.72;27.90;;;;;;;6.93;76.99;99740.38;5088026;28;20046;-67
2021/03/27 02:26:22;;;;;;;65.32;31.38;;;;;;;7.01;76.59;99744.66;5104167;28;20107;-68
2021/03/27 02:29:27;;;;;;;37.77;18.47;;;;;;;7.21;76.26;99752.28;5104164;28;20024;-67
2021/03/27 02:32:00;;;;;;;46.40;21.95;;;;;;;7.13;76.00;99734.25;5104377;28;20101;-66
2021/03/27 02:34:43;;;;;;;42.42;19.52;;;;;;;7.03;76.78;99746.34;5104199;28;20039;-67
2021/03/27 02:37:36;;;;;;;30.55;14.07;;;;;;;7.21;76.09;99741.09;5103999;28;20097;-66
2021/03/27 02:40:12;;;;;;;53.55;24.88;;;;;;;6.71;77.21;99710.38;5103773;28;20032;-65
2021/03/27 02:43:02;;;;;;;43.03;14.95;;;;;;;7.03;76.88;99724.84;5104168;28;20035;-66
2021/03/27 02:45:40;;;;;;;43.17;20.90;;;;;;;7.09;76.58;99729.13;5103768;28;20094;-65
2021/03/27 02:48:20;;;;;;;45.50;23.08;;;;;;;7.16;76.36;99718.75;5103755;28;20107;-65
2021/03/27 02:51:06;;;;;;;53.42;24.58;;;;;;;7.03;76.36;99706.78;5103888;28;20012;-65
2021/03/27 02:53:34;;;;;;;30.13;11.90;;;;;;;7.19;76.01;99713.59;5103385;28;20086;-65
2021/03/27 02:56:11;;;;;;;48.50;23.58;;;;;;;7.01;76.66;99708.53;5085340;28;20028;-66
2021/03/27 02:58:52;;;;;;;52.95;22.15;;;;;;;7.06;76.56;99702.47;5103777;28;20043;-66
2021/03/27 03:01:43;;;;;;;30.77;14.55;;;;;;;7.26;75.74;99706.66;5103569;28;20065;-66
2021/03/27 03:04:14;;;;;;;44.00;20.33;;;;;;;7.02;76.50;99695.59;5103563;28;20032;-68
2021/03/27 03:07:01;;;;;;;39.83;20.60;;;;;;;7.13;76.03;99695.53;5103434;28;20020;-67
2021/03/27 03:09:39;;;;;;;43.30;22.45;;;;;;;7.22;75.75;99688.63;5103166;28;20032;-68
2021/03/27 03:12:32;;;;;;;28.63;12.68;;;;;;;7.28;75.40;99676.53;5103395;28;20032;-67
2021/03/27 03:15:07;;;;;;;59.20;26.52;;;;;;;7.13;75.83;99682.63;5102112;28;20488;-67
2021/03/27 03:17:46;;;;;;;48.97;22.58;;;;;;;7.15;75.94;99677.47;5103328;28;20052;-66
2021/03/27 03:20:22;;;;;;;49.78;21.70;;;;;;;7.02;76.37;99680.13;5103343;28;20020;-67
2021/03/27 03:23:02;;;;;;;46.78;23.33;;;;;;;6.93;76.95;99675.00;5103222;28;20031;-66
2021/03/27 03:25:32;;;;;;;40.63;18.52;;;;;;;7.33;75.35;99676.50;5103173;28;20059;-67
2021/03/27 03:28:03;;;;;;;56.92;24.85;;;;;;;7.07;76.18;99670.63;5103492;28;20031;-65
2021/03/27 03:30:33;;;;;;;57.65;28.05;;;;;;;7.07;76.30;99672.34;5103390;28;20027;-66
2021/03/27 03:33:38;;;;;;;48.17;20.38;;;;;;;7.08;76.23;99668.91;5103394;28;20062;-65
2021/03/27 03:36:08;;;;;;;44.90;22.08;;;;;;;7.14;76.15;99675.75;5103128;28;20370;-67
2021/03/27 03:38:47;;;;;;;53.25;26.10;;;;;;;6.85;77.28;99658.72;5102962;28;20047;-66
2021/03/27 03:41:15;;;;;;;46.40;23.40;;;;;;;7.15;76.08;99675.75;5088600;28;20184;-66
2021/03/27 03:44:18;;;;;;;55.22;27.92;;;;;;;7.09;76.28;99668.06;5107363;28;20452;-66
2021/03/27 03:47:05;;;;;;;62.58;28.70;;;;;;;7.06;76.55;99665.50;5024313;28;20033;-66
2021/03/27 03:49:51;;;;;;;51.88;24.38;;;;;;;7.10;76.43;99664.59;5024348;28;20034;-65
2021/03/27 03:52:34;;;;;;;50.75;19.60;;;;;;;7.24;76.10;99666.22;5024204;28;20052;-66
2021/03/27 03:55:08;;;;;;;55.58;27.13;;;;;;;7.30;75.62;99659.28;5023902;28;20042;-65
2021/03/27 03:57:42;;;;;;;52.10;25.42;;;;;;;7.28;75.66;99660.19;5024176;28;20026;-65
2021/03/27 04:00:17;;;;;;;31.92;14.48;;;;;;;7.28;75.78;99660.19;5024269;28;20030;-64
2021/03/27 04:02:54;;;;;;;49.13;24.33;;;;;;;7.22;76.05;99650.72;5017189;28;20063;-65
2021/03/27 04:05:49;;;;;;;55.40;24.10;;;;;;;7.14;76.56;99661.09;5024185;28;20022;-66
2021/03/27 04:08:14;;;;;;;66.78;30.27;;;;;;;7.05;77.11;99669.78;5023672;28;20035;-65
2021/03/27 04:10:42;;;;;;;72.30;32.63;;;;;;;6.94;77.47;99662.09;5024070;28;20044;-65
2021/03/27 04:13:15;;;;;;;64.57;30.27;;;;;;;6.89;77.90;99653.53;5023708;28;20132;-66
2021/03/27 04:15:52;;;;;;;59.88;26.85;;;;;;;7.12;77.36;99655.13;5023837;28;20026;-66
2021/03/27 04:18:29;;;;;;;68.97;27.20;;;;;;;7.07;77.66;99657.72;5023832;28;20444;-64
2021/03/27 04:21:19;;;;;;;65.63;28.70;;;;;;;7.07;77.83;99672.34;5065629;28;20052;-65
2021/03/27 04:23:53;;;;;;;49.92;21.98;;;;;;;7.03;78.01;99666.34;5106194;28;20044;-66
2021/03/27 04:26:24;;;;;;;54.33;24.67;;;;;;;6.88;78.71;99664.72;5106461;28;20166;-66
2021/03/27 04:29:09;;;;;;;52.63;23.55;;;;;;;7.01;78.18;99656.91;5106453;28;20024;-66
2021/03/27 04:32:06;;;;;;;54.47;22.05;;;;;;;7.12;77.97;99649.09;5106482;28;20031;-65
2021/03/27 04:34:57;;;;;;;78.90;34.88;;;;;;;6.79;79.30;99636.34;5081078;28;20044;-67
2021/03/27 04:37:35;;;;;;;82.40;36.42;;;;;;;6.81;79.38;99634.63;5087326;28;20189;-66
2021/03/27 04:40:11;;;;;;;63.35;25.98;;;;;;;6.95;79.28;99621.66;5106168;28;20027;-64
2021/03/27 04:42:47;;;;;;;87.45;37.58;;;;;;;7.00;79.13;99624.19;5106160;28;20034;-64
2021/03/27 04:45:25;;;;;;;82.40;38.22;;;;;;;7.07;79.06;99625.91;5106014;28;20023;-65
2021/03/27 04:48:28;;;;;;;91.28;37.30;;;;;;;6.80;79.91;99631.22;5106104;28;20023;-66
2021/03/27 04:51:17;;;;;;;99.32;44.15;;;;;;;6.71;80.40;99654.47;5106038;28;20031;-65
2021/03/27 04:53:51;;;;;;;103.70;43.35;;;;;;;6.71;80.88;99671.69;5105621;28;20032;-67
2021/03/27 04:56:16;;;;;;;105.47;44.13;;;;;;;6.72;80.80;99668.22;5105897;28;20050;-67
2021/03/27 04:59:12;;;;;;;116.63;47.00;;;;;;;6.73;81.06;99637.25;5105684;28;20019;-68
2021/03/27 05:01:54;;;;;;;115.28;46.53;;;;;;;6.73;80.91;99628.66;5105926;28;20074;-69
2021/03/27 05:04:32;;;;;;;117.50;46.95;;;;;;;6.77;80.50;99618.31;5087403;28;20020;-70
2021/03/27 05:07:04;;;;;;;86.32;33.80;;;;;;;6.97;79.86;99621.63;5087320;28;20123;-68
2021/03/27 05:09:41;;;;;;;96.97;39.30;;;;;;;6.87;80.18;99616.53;5105562;28;20368;-67
2021/03/27 05:12:23;;;;;;;106.93;40.00;;;;;;;6.73;80.73;99616.63;5087282;28;20054;-69
2021/03/27 05:15:07;;;;;;;117.10;49.97;;;;;;;6.64;80.88;99611.53;5105552;28;20032;-69
2021/03/27 05:17:49;;;;;;;99.70;42.22;;;;;;;6.77;80.76;99622.63;5105692;28;20020;-68
2021/03/27 05:20:20;;;;;;;131.52;50.25;;;;;;;6.68;81.07;99608.91;5105528;28;20114;-67
2021/03/27 05:23:23;;;;;;;116.50;47.60;;;;;;;6.88;81.08;99605.38;5105353;28;20028;-65
2021/03/27 05:26:00;;;;;;;115.63;45.72;;;;;;;6.72;81.40;99596.00;5105280;28;20096;-65
2021/03/27 05:29:14;;;;;;;124.90;50.63;;;;;;;6.67;81.89;99596.88;5105362;28;20024;-65
2021/03/27 05:31:58;;;;;;;98.57;39.05;;;;;;;6.79;81.82;99600.25;5022607;28;20089;-64
2021/03/27 05:34:36;;;;;;;104.05;44.10;;;;;;;6.77;81.72;99607.16;5022463;28;20067;-65
2021/03/27 05:37:17;;;;;;;96.78;41.25;;;;;;;6.74;82.12;99609.75;5022480;28;20033;-64
2021/03/27 05:39:58;;;;;;;140.65;51.20;;;;;;;6.77;82.04;99605.41;5022224;28;20026;-63
2021/03/27 05:42:30;;;;;;;128.40;50.35;;;;;;;6.75;82.09;99604.59;5022244;28;20034;-65
2021/03/27 05:45:26;;;;;;;108.47;44.92;;;;;;;6.76;82.25;99595.09;5022180;28;20040;-64
2021/03/27 05:48:13;;;;;;;84.93;34.25;;;;;;;6.93;81.79;99598.44;5022128;28;20458;-64
2021/03/27 05:51:16;;;;;;;94.65;35.40;;;;;;;7.09;81.50;99593.19;5022149;28;20030;-64
2021/03/27 05:54:12;;;;;;;106.88;41.47;;;;;;;6.86;82.15;99585.59;5021750;28;20080;-64
2021/03/27 05:57:13;;;;;;;102.47;36.75;;;;;;;6.97;82.01;99585.50;5021892;28;20058;-64
2021/03/27 06:00:26;;;;;;;59.95;22.50;;;;;;;7.16;81.40;99583.66;5022001;28;20089;-63
2021/03/27 06:03:25;;;;;;;127.50;50.15;;;;;;;6.86;82.54;99583.88;5012759;28;20053;-64
2021/03/27 06:06:24;;;;;;;124.38;49.13;;;;;;;6.96;82.29;99576.06;5022042;28;20042;-64
2021/03/27 06:09:18;;;;;;;98.82;38.80;;;;;;;6.98;82.25;99593.25;5084670;28;20039;-63
2021/03/27 06:11:55;;;;;;;104.35;40.15;;;;;;;7.07;81.86;99582.00;5104750;28;20027;-64
2021/03/27 06:14:39;;;;;;;88.97;33.38;;;;;;;7.04;82.14;99580.31;5104452;28;20047;-63
2021/03/27 06:17:15;;;;;;;121.18;46.53;;;;;;;7.00;81.90;99580.34;5104228;28;20020;-66
2021/03/27 06:19:41;;;;;;;83.80;32.28;;;;;;;6.95;82.22;99575.19;5104569;28;20028;-65
2021/03/27 06:22:28;;;;;;;110.05;43.72;;;;;;;6.80;83.01;99565.84;5104373;28;20028;-65
2021/03/27 06:25:13;;;;;;;144.73;55.97;;;;;;;6.78;82.92;99568.44;5103982;28;20081;-65
2021/03/27 06:28:07;;;;;;;114.03;42.85;;;;;;;6.86;82.98;99570.97;5104400;28;20514;-64
2021/03/27 06:30:56;;;;;;;94.28;38.15;;;;;;;6.81;83.22;99562.41;5104076;28;20047;-66
2021/03/27 06:33:53;;;;;;;124.35;50.10;;;;;;;6.78;83.57;99562.41;5104430;28;20020;-65
2021/03/27 06:36:28;;;;;;;112.00;41.45;;;;;;;7.02;82.71;99565.69;5081223;28;20444;-65
2021/03/27 06:39:25;;;;;;;123.60;43.78;;;;;;;7.03;82.32;99563.09;5103954;28;20042;-65
2021/03/27 06:42:06;;;;;;;118.07;46.67;;;;;;;6.99;82.73;99563.16;5104389;28;20024;-65
2021/03/27 06:45:11;;;;;;;121.20;42.58;;;;;;;7.08;82.31;99565.66;5103998;28;20048;-65
2021/03/27 06:47:45;;;;;;;136.82;54.47;;;;;;;6.92;82.91;99555.44;5104279;28;20375;-65
2021/03/27 06:50:33;;;;;;;117.90;46.92;;;;;;;7.02;83.05;99545.06;5103810;28;20040;-65
2021/03/27 06:53:14;;;;;;;121.60;52.97;;;;;;;7.18;82.34;99548.38;5020582;28;20034;-64
2021/03/27 06:55:47;;;;;;;113.55;47.53;;;;;;;7.25;82.42;99550.00;5020969;28;20030;-65
2021/03/27 06:58:50;;;;;;;98.13;43.28;;;;;;;7.43;81.92;99546.44;5020913;28;20042;-65
2021/03/27 07:01:40;;;;;;;71.60;31.52;;;;;;;7.81;81.10;99538.31;5021242;28;20030;-64
2021/03/27 07:04:29;;;;;;;81.07;35.80;;;;;;;7.92;80.81;99527.84;5021028;28;20038;-65
2021/03/27 07:07:50;;;;;;;89.07;37.65;;;;;;;8.05;79.44;99533.75;5021102;28;20025;-69
2021/03/27 07:11:06;;;;;;;108.32;45.00;;;;;;;7.87;79.49;99534.78;4943392;29;20043;-69
2021/03/27 07:14:08;;;;;;;100.88;43.30;;;;;;;7.79;79.99;99540.06;4943069;29;20177;-65
2021/03/27 07:17:00;;;;;;;107.93;47.22;;;;;;;7.67;80.43;99541.03;4942946;29;20062;-64
2021/03/27 07:19:54;;;;;;;62.88;25.33;;;;;;;8.00;79.05;99535.50;4943376;29;20035;-64
2021/03/27 07:22:59;;;;;;;90.68;40.40;;;;;;;7.90;80.04;99534.75;4943247;29;20027;-65
2021/03/27 07:25:42;;;;;;;76.45;31.88;;;;;;;8.31;78.62;99528.22;4943316;29;20051;-65
2021/03/27 07:28:27;;;;;;;78.65;33.70;;;;;;;8.56;77.72;99545.19;4943385;29;20031;-64
2021/03/27 07:31:17;;;;;;;76.88;36.53;;;;;;;8.63;77.75;99541.63;4992239;28;20409;-64
2021/03/27 07:34:12;;;;;;;77.65;37.08;;;;;;;8.62;77.20;99532.16;5001286;28;20049;-64
2021/03/27 07:36:43;;;;;;;93.75;38.72;;;;;;;8.52;76.83;99530.53;5001250;28;20524;-65
2021/03/27 07:39:32;;;;;;;94.13;39.28;;;;;;;8.29;77.35;99542.06;5000971;28;20097;-62
2021/03/27 07:42:48;;;;;;;82.70;32.55;;;;;;;8.33;77.01;99532.50;5001141;28;20392;-64
2021/03/27 07:45:37;;;;;;;71.15;27.25;;;;;;;8.18;77.00;99524.94;5003908;28;20436;-64
2021/03/27 07:48:11;;;;;;;59.47;23.33;;;;;;;8.29;76.78;99531.72;5085290;28;20039;-63
2021/03/27 07:51:15;;;;;;;100.78;43.90;;;;;;;7.87;78.03;99519.28;5103171;28;20031;-64
2021/03/27 07:53:54;;;;;;;52.47;24.00;;;;;;;8.11;76.83;99522.44;5102869;28;20162;-63
2021/03/27 07:56:38;;;;;;;108.40;49.28;;;;;;;7.85;77.53;99508.09;5103194;28;20047;-65
2021/03/27 07:59:22;;;;;;;60.20;27.92;;;;;;;8.00;77.35;99525.19;5085006;28;20048;-63
2021/03/27 08:01:57;;;;;;;90.60;40.53;;;;;;;7.87;77.12;99517.56;5103233;28;20380;-65
2021/03/27 08:05:00;;;;;;;68.70;28.58;;;;;;;7.59;78.79;99507.53;5103404;28;20032;-65
2021/03/27 08:07:44;;;;;;;96.32;41.97;;;;;;;7.65;78.58;99504.88;5098828;28;20043;-66
2021/03/27 08:10:44;;;;;;;66.78;31.48;;;;;;;8.05;77.60;99498.38;5102905;28;20087;-65
2021/03/27 08:13:46;;;;;;;87.85;38.80;;;;;;;8.08;77.44;99497.50;5103134;28;20020;-68
2021/03/27 08:16:37;;;;;;;85.65;42.22;;;;;;;8.08;76.70;99494.06;5102927;28;20024;-64
2021/03/27 08:19:21;;;;;;;64.90;30.63;;;;;;;8.25;75.96;99502.44;5103035;28;20105;-66
2021/03/27 08:22:21;;;;;;;64.68;29.33;;;;;;;8.42;76.19;99484.09;5084940;28;20028;-65
2021/03/27 08:24:49;;;;;;;83.47;37.50;;;;;;;8.52;75.42;99502.06;5102301;28;20063;-66
2021/03/27 08:27:49;;;;;;;89.95;40.15;;;;;;;8.74;76.18;99514.75;5106016;28;20024;-66
2021/03/27 08:31:03;;;;;;;77.35;42.03;;;;;;;9.27;78.13;99532.00;5069809;28;20044;-67
2021/03/27 08:33:51;;;;;;;80.63;41.50;;;;;;;9.88;77.09;99539.53;5083622;28;20058;-67
2021/03/27 08:36:28;;;;;;;90.25;46.15;;;;;;;10.02;75.66;99535.81;5106930;28;20065;-67
2021/03/27 08:39:30;;;;;;;80.32;41.80;;;;;;;10.09;75.52;99540.00;5106463;28;20107;-67
2021/03/27 08:42:06;;;;;;;85.13;45.95;;;;;;;10.26;73.11;99543.97;5107010;28;20012;-66
2021/03/27 08:44:56;;;;;;;78.50;42.72;;;;;;;10.02;73.49;99541.84;5106955;28;20044;-66
2021/03/27 08:48:09;;;;;;;76.50;37.08;;;;;;;10.09;71.69;99536.53;5106434;28;20024;-66
2021/03/27 08:50:53;;;;;;;79.82;41.03;;;;;;;9.89;72.50;99538.66;5024765;28;20034;-65
2021/03/27 08:53:37;;;;;;;78.18;37.78;;;;;;;9.96;70.93;99529.00;5023452;28;20053;-66
2021/03/27 08:56:22;;;;;;;53.28;23.83;;;;;;;9.97;69.93;99528.13;5023729;28;20073;-65
2021/03/27 08:59:39;;;;;;;86.55;40.58;;;;;;;9.60;71.64;99537.47;5023464;28;20030;-66
2021/03/27 09:02:41;;;;;;;78.20;40.90;;;;;;;9.90;71.60;99537.75;4984255;28;20042;-66
2021/03/27 09:05:34;;;;;;;82.05;41.03;;;;;;;10.08;71.50;99538.28;4984446;28;20026;-67
2021/03/27 09:08:21;;;;;;;81.88;39.90;;;;;;;10.36;71.02;99534.25;4984337;28;20039;-67
2021/03/27 09:10:58;;;;;;;82.20;42.75;;;;;;;10.53;70.50;99546.88;4984386;28;20054;-66
2021/03/27 09:13:40;;;;;;;78.93;41.03;;;;;;;10.80;69.51;99544.53;4984076;28;20046;-67
2021/03/27 09:16:23;;;;;;;76.00;39.60;;;;;;;10.94;69.50;99546.84;4984449;28;20023;-67
2021/03/27 09:18:57;;;;;;;76.72;38.85;;;;;;;11.20;65.36;99534.09;4984040;28;20479;-66
2021/03/27 09:21:29;;;;;;;74.18;37.38;;;;;;;10.74;67.57;99539.50;4983900;28;20039;-66
2021/03/27 09:24:16;;;;;;;77.30;39.45;;;;;;;10.52;68.43;99540.00;4983478;28;20223;-66
2021/03/27 09:26:47;;;;;;;67.82;31.15;;;;;;;10.54;67.35;99538.22;4998323;28;20032;-66
2021/03/27 09:29:27;;;;;;;84.07;41.33;;;;;;;10.13;68.14;99533.00;5042756;28;20033;-65
2021/03/27 09:32:15;;;;;;;69.15;37.60;;;;;;;10.06;68.58;99536.59;5053851;28;20039;-66
2021/03/27 09:34:50;;;;;;;81.22;41.03;;;;;;;9.88;69.30;99531.75;5105506;28;20024;-67
2021/03/27 09:37:37;;;;;;;77.68;38.22;;;;;;;9.87;68.69;99543.00;5104478;28;20494;-67
2021/03/27 09:40:27;;;;;;;77.13;41.83;;;;;;;9.70;69.09;99543.31;5104975;28;20055;-67
2021/03/27 09:42:55;;;;;;;79.22;41.72;;;;;;;9.62;69.38;99533.09;5105514;28;20193;-67
2021/03/27 09:45:49;;;;;;;73.65;40.65;;;;;;;9.59;69.54;99535.75;5104931;28;20035;-66
2021/03/27 09:48:33;;;;;;;77.38;41.40;;;;;;;9.47;69.39;99538.56;5093734;28;20039;-66
2021/03/27 09:51:17;;;;;;;76.32;38.60;;;;;;;9.44;69.41;99536.88;5104511;28;20016;-65
2021/03/27 09:53:48;;;;;;;54.33;26.27;;;;;;;9.35;68.19;99552.59;5104566;28;20048;-67
2021/03/27 09:56:39;;;;;;;62.70;33.03;;;;;;;9.13;68.15;99555.53;5104956;28;20051;-66
2021/03/27 09:59:18;;;;;;;78.32;40.80;;;;;;;9.02;68.81;99550.53;5104913;28;20259;-66
2021/03/27 10:02:03;;;;;;;71.53;39.40;;;;;;;8.87;68.85;99546.44;5104348;28;20076;-66
2021/03/27 10:04:28;;;;;;;64.28;31.23;;;;;;;8.80;68.98;99543.94;5104809;28;20028;-67
2021/03/27 10:07:20;;;;;;;77.32;38.53;;;;;;;8.73;69.05;99552.69;5104688;28;20075;-66
2021/03/27 10:09:57;;;;;;;75.28;35.28;;;;;;;8.59;69.10;99552.03;5104370;28;20099;-68
2021/03/27 10:12:36;;;;;;;85.10;43.80;;;;;;;8.37;69.39;99540.19;5104855;28;20332;-66
2021/03/27 10:15:20;;;;;;;63.00;29.73;;;;;;;8.34;69.65;99554.94;5104436;28;20034;-67
2021/03/27 10:17:54;;;;;;;71.28;35.97;;;;;;;8.21;70.29;99559.41;5104619;28;20043;-67
2021/03/27 10:20:37;;;;;;;75.25;36.88;;;;;;;8.16;70.18;99555.13;5104419;28;20019;-67
2021/03/27 10:23:02;;;;;;;78.97;40.75;;;;;;;8.09;70.43;99565.56;5103918;28;20054;-65
2021/03/27 10:25:36;;;;;;;82.90;41.15;;;;;;;8.00;70.49;99556.19;5085821;28;20024;-66
2021/03/27 10:28:29;;;;;;;73.22;31.73;;;;;;;7.88;71.04;99565.78;5105248;28;20100;-68
2021/03/27 10:31:06;;;;;;;81.55;41.13;;;;;;;7.78;71.40;99565.03;5104664;28;20026;-65
2021/03/27 10:33:43;;;;;;;42.60;18.83;;;;;;;7.68;71.95;99572.00;5104306;28;20031;-66
2021/03/27 10:36:43;;;;;;;85.32;40.70;;;;;;;7.59;72.26;99581.59;5104207;28;20502;-66
2021/03/27 10:39:26;;;;;;;60.50;26.67;;;;;;;7.45;72.88;99580.00;5103891;28;20020;-67
2021/03/27 10:42:19;;;;;;;93.47;40.42;;;;;;;7.32;73.34;99586.97;5085931;28;20046;-67
2021/03/27 10:44:54;;;;;;;99.55;42.40;;;;;;;7.23;73.88;99581.88;5104398;28;20035;-68
2021/03/27 10:47:31;;;;;;;108.60;47.90;;;;;;;7.17;74.19;99572.47;5104069;28;20032;-67
2021/03/27 10:50:14;;;;;;;60.35;25.45;;;;;;;7.13;74.65;99575.94;5086013;28;20051;-67
2021/03/27 10:52:58;;;;;;;99.85;44.80;;;;;;;7.06;74.67;99576.00;5104001;28;20028;-67
2021/03/27 10:55:46;;;;;;;101.47;45.13;;;;;;;6.96;75.04;99579.50;5085703;28;20024;-66
2021/03/27 10:58:17;;;;;;;102.07;41.83;;;;;;;6.84;75.64;99583.03;5103950;28;20024;-66
2021/03/27 11:01:27;;;;;;;95.70;43.80;;;;;;;6.78;76.23;99591.66;5103964;28;20031;-67
2021/03/27 11:04:04;;;;;;;111.97;47.00;;;;;;;6.74;76.24;99589.13;5099516;28;20380;-66
2021/03/27 11:06:57;;;;;;;105.28;47.83;;;;;;;6.68;76.58;99588.28;5103764;28;20032;-65
2021/03/27 11:09:44;;;;;;;104.38;48.70;;;;;;;6.67;76.89;99591.72;5103655;28;20039;-66
2021/03/27 11:12:28;;;;;;;97.97;43.33;;;;;;;6.68;76.96;99593.44;5085431;28;20498;-66
2021/03/27 11:15:23;;;;;;;67.50;30.02;;;;;;;6.66;76.64;99596.91;5103797;28;20028;-66
2021/03/27 11:18:25;;;;;;;32.33;10.07;;;;;;;6.47;75.80;99598.72;5081247;28;20028;-66
2021/03/27 11:20:51;;;;;;;15.48;4.20;;;;;;;6.27;75.61;99604.78;5103896;28;20077;-65
2021/03/27 11:23:22;;;;;;;18.80;3.88;;;;;;;6.04;75.89;99610.84;5103117;28;20020;-66
2021/03/27 11:26:25;;;;;;;8.90;2.63;;;;;;;5.89;76.04;99616.91;5103564;28;20024;-64
2021/03/27 11:29:06;;;;;;;9.73;3.20;;;;;;;5.75;76.30;99620.34;5103457;28;20020;-64
2021/03/27 11:31:42;;;;;;;13.65;1.80;;;;;;;5.63;75.96;99628.94;5103431;28;20027;-66
2021/03/27 11:34:10;;;;;;;6.38;2.13;;;;;;;5.47;75.77;99633.25;5085182;28;20043;-65
2021/03/27 11:36:42;;;;;;;8.93;1.70;;;;;;;5.33;76.08;99643.53;5103386;28;20024;-65
2021/03/27 11:39:25;;;;;;;8.45;1.35;;;;;;;5.16;76.11;99639.22;5103223;28;20482;-65
2021/03/27 11:42:12;;;;;;;4.97;1.55;;;;;;;5.06;76.53;99661.50;5103402;28;20028;-66
2021/03/27 11:44:53;;;;;;;10.18;1.55;;;;;;;4.87;76.48;99655.47;5103356;28;20492;-63
2021/03/27 11:47:31;;;;;;;4.55;0.90;;;;;;;4.78;76.63;99658.00;5103038;28;20028;-64
2021/03/27 11:50:08;;;;;;;4.65;1.15;;;;;;;4.72;76.65;99669.13;5103267;28;20076;-66
2021/03/27 11:52:47;;;;;;;8.27;1.27;;;;;;;4.58;76.97;99677.63;5103040;28;20025;-68
2021/03/27 11:55:48;;;;;;;8.48;1.00;;;;;;;4.49;77.25;99684.47;5103134;28;20249;-71
2021/03/27 11:59:42;;;;;;;6.38;1.05;;;;;;;4.41;77.38;99698.13;5103366;28;20040;-69
2021/03/27 12:01:34;;;;;;;6.05;1.13;;;;;;;4.29;77.44;99698.06;5104917;28;20055;-68
2021/03/27 12:04:19;;;;;;;3.38;0.80;;;;;;;4.24;77.68;99695.47;5107025;28;20039;-68
2021/03/27 12:07:19;;;;;;;5.60;1.50;;;;;;;4.21;77.83;99706.59;5107407;28;20162;-68
2021/03/27 12:10:00;;;;;;;5.82;0.98;;;;;;;4.16;78.24;99705.69;5084642;28;20032;-68
2021/03/27 12:12:50;;;;;;;6.93;1.15;;;;;;;4.18;78.13;99710.84;5106953;28;20027;-69
2021/03/27 12:15:31;;;;;;;4.55;1.10;;;;;;;4.07;78.22;99728.75;5088413;28;20051;-69
2021/03/27 12:18:03;;;;;;;3.42;0.80;;;;;;;3.99;78.94;99717.56;5106606;28;20028;-70
2021/03/27 12:20:35;;;;;;;2.60;1.00;;;;;;;3.94;79.23;99738.94;5106670;28;20085;-69
2021/03/27 12:23:23;;;;;;;;;;;;;;;3.88;79.50;99740.59;5106836;28;20041;-68
2021/03/27 12:26:19;;;;;;;5.18;1.05;;;;;;;3.81;79.92;99740.53;5082522;28;19943;-70
2021/03/27 12:29:00;;;;;;;4.45;2.28;;;;;;;3.84;80.39;99753.41;5088174;28;20020;-69
2021/03/27 12:31:53;;;;;;;3.92;0.88;;;;;;;3.82;80.27;99747.38;5106393;28;20079;-69
2021/03/27 12:34:54;;;;;;;4.88;0.80;;;;;;;3.88;80.45;99753.44;5106332;28;20020;-69
2021/03/27 12:37:31;;;;;;;4.60;1.00;;;;;;;3.81;80.83;99758.50;5052463;28;20082;-69
2021/03/27 12:40:22;;;;;;;3.40;0.90;;;;;;;3.79;81.27;99762.75;5105951;28;20047;-68